Time;durP1;ratioP1;P1;durP2;ratioP2;P2;SDS_P1;SDS_P2;PMS_P1;PMS_P2;Temp;Humidity;BMP_temperature;BMP_pressure;BME280_temperature;BME280_humidity;BME280_pressure;Samples;Min_cycle;Max_cycle;Signal;HPM_P1;HPM_P2
2022/01/10 00:02:28;;;;;;;14.77;13.13;;;;;;;;;;12551582;28;20029;-74
2022/01/10 00:08:30;;;;;;;18.10;16.17;;;;;;;;;;12551262;28;20032;-74
2022/01/10 00:14:32;;;;;;;17.38;15.57;;;;;;;;;;12551976;28;20537;-73
2022/01/10 00:20:34;;;;;;;18.55;16.75;;;;;;;;;;12551686;28;20056;-74
2022/01/10 00:26:35;;;;;;;15.48;13.13;;;;;;;;;;12550390;28;20040;-74
2022/01/10 00:32:38;;;;;;;15.50;13.50;;;;;;;;;;12551404;28;20033;-74
2022/01/10 00:38:39;;;;;;;15.77;14.20;;;;;;;;;;12549880;28;20044;-74
2022/01/10 00:44:49;;;;;;;14.40;13.02;;;;;;;;;;12551551;28;20029;-74
2022/01/10 00:50:51;;;;;;;17.00;15.25;;;;;;;;;;12550751;28;20033;-74
2022/01/10 00:56:52;;;;;;;14.20;12.77;;;;;;;;;;12549090;28;20513;-74
2022/01/10 01:02:54;;;;;;;18.23;16.38;;;;;;;;;;12548260;28;20400;-74
2022/01/10 01:09:01;;;;;;;15.80;14.20;;;;;;;;;;12548458;28;20394;-74
2022/01/10 01:15:17;;;;;;;17.88;15.82;;;;;;;;;;12549138;28;20049;-74
2022/01/10 01:27:42;;;;;;;14.20;12.60;;;;;;;;;;12547557;28;20044;-74
2022/01/10 01:33:43;;;;;;;;;;;;;;;;;;12549029;28;20040;-73
2022/01/10 01:39:45;;;;;;;22.90;19.90;;;;;;;;;;12530507;28;19921;-74
2022/01/10 01:45:47;;;;;;;18.55;15.93;;;;;;;;;;12547502;28;20486;-74
2022/01/10 01:51:49;;;;;;;21.98;19.52;;;;;;;;;;12546581;28;20033;-74
2022/01/10 01:57:51;;;;;;;17.30;15.43;;;;;;;;;;12529615;28;20037;-74
2022/01/10 02:03:53;;;;;;;20.90;18.70;;;;;;;;;;12545986;28;20037;-74
2022/01/10 02:10:03;;;;;;;22.08;19.70;;;;;;;;;;12529659;28;20040;-74
2022/01/10 02:16:08;;;;;;;20.10;17.05;;;;;;;;;;12544269;28;20049;-74
2022/01/10 02:22:14;;;;;;;17.20;15.38;;;;;;;;;;12545225;28;20052;-74
2022/01/10 02:28:33;;;;;;;15.98;14.27;;;;;;;;;;12544563;28;20059;-74
2022/01/10 02:34:35;;;;;;;15.77;14.02;;;;;;;;;;12544337;28;20490;-74
2022/01/10 02:40:37;;;;;;;13.88;12.30;;;;;;;;;;12545230;28;20033;-74
2022/01/10 02:46:40;;;;;;;15.27;13.03;;;;;;;;;;12544387;28;20037;-74
2022/01/10 02:52:51;;;;;;;15.95;14.25;;;;;;;;;;12543732;28;20067;-74
2022/01/10 02:58:53;;;;;;;14.70;13.18;;;;;;;;;;12543319;28;20056;-74
2022/01/10 03:04:56;;;;;;;18.55;16.40;;;;;;;;;;12543377;28;20033;-74
2022/01/10 03:10:58;;;;;;;16.73;14.38;;;;;;;;;;12544094;28;20048;-74
2022/01/10 03:17:00;;;;;;;15.82;14.02;;;;;;;;;;12543696;28;20064;-74
2022/01/10 03:23:01;;;;;;;16.75;14.77;;;;;;;;;;12543950;28;20303;-74
2022/01/10 03:29:04;;;;;;;13.73;12.40;;;;;;;;;;12542501;28;20040;-74
2022/01/10 03:35:06;;;;;;;15.93;14.17;;;;;;;;;;12543220;28;20470;-73
2022/01/10 03:41:09;;;;;;;16.97;14.33;;;;;;;;;;12525960;28;20044;-74
2022/01/10 03:47:11;;;;;;;19.35;16.23;;;;;;;;;;12542703;28;20033;-74
2022/01/10 03:53:13;;;;;;;17.80;14.83;;;;;;;;;;12542102;28;20029;-74
2022/01/10 03:59:16;;;;;;;16.95;14.38;;;;;;;;;;12541630;28;20048;-73
2022/01/10 04:05:17;;;;;;;21.42;18.45;;;;;;;;;;12541767;28;20021;-74
2022/01/10 04:11:19;;;;;;;16.95;14.48;;;;;;;;;;12541519;28;20037;-74
2022/01/10 04:17:21;;;;;;;18.67;14.45;;;;;;;;;;12540948;28;20060;-74
2022/01/10 04:23:23;;;;;;;12.07;10.90;;;;;;;;;;12541425;28;20037;-74
2022/01/10 04:29:25;;;;;;;13.50;12.10;;;;;;;;;;12541266;28;20394;-74
2022/01/10 04:35:27;;;;;;;14.30;12.80;;;;;;;;;;12540733;28;20045;-74
2022/01/10 04:41:29;;;;;;;15.77;14.07;;;;;;;;;;12547665;28;20025;-74
2022/01/10 04:47:32;;;;;;;17.07;14.73;;;;;;;;;;12533673;28;20036;-74
2022/01/10 04:53:34;;;;;;;13.73;11.53;;;;;;;;;;12549095;28;20398;-74
2022/01/10 04:59:35;;;;;;;17.73;13.98;;;;;;;;;;12549266;28;20402;-74
2022/01/10 05:05:37;;;;;;;16.23;14.52;;;;;;;;;;12548623;28;20025;-74
2022/01/10 05:11:40;;;;;;;16.47;14.73;;;;;;;;;;12548424;28;20044;-74
2022/01/10 05:17:44;;;;;;;16.90;14.68;;;;;;;;;;12531544;28;20053;-74
2022/01/10 05:23:46;;;;;;;16.77;15.00;;;;;;;;;;12549285;28;20033;-74
2022/01/10 05:29:48;;;;;;;15.70;13.07;;;;;;;;;;12531135;28;20040;-74
2022/01/10 05:35:50;;;;;;;11.93;10.67;;;;;;;;;;12547389;28;20513;-74
2022/01/10 05:41:52;;;;;;;15.18;13.50;;;;;;;;;;12547057;28;20290;-74
2022/01/10 05:47:54;;;;;;;13.43;12.10;;;;;;;;;;12546845;28;20049;-74
2022/01/10 05:53:57;;;;;;;;;;;;;;;;;;12546793;28;20044;-74
2022/01/10 05:59:59;;;;;;;15.27;13.35;;;;;;;;;;12546085;28;19917;-75
2022/01/10 06:06:03;;;;;;;16.63;14.77;;;;;;;;;;12545878;28;20037;-75
2022/01/10 06:12:05;;;;;;;14.35;12.68;;;;;;;;;;12545441;28;20033;-75
2022/01/10 06:18:07;;;;;;;13.20;10.70;;;;;;;;;;12528520;28;20053;-74
2022/01/10 06:24:09;;;;;;;15.60;13.77;;;;;;;;;;12544915;28;20037;-74
2022/01/10 06:30:11;;;;;;;14.40;12.70;;;;;;;;;;12527961;28;20046;-74
2022/01/10 06:36:16;;;;;;;14.93;13.35;;;;;;;;;;12528033;28;20487;-73
2022/01/10 06:42:21;;;;;;;10.15;9.13;;;;;;;;;;12536017;28;20029;-74
2022/01/10 06:49:17;;;;;;;17.48;15.65;;;;;;;;;;12366219;28;20984;-73
2022/01/10 06:55:20;;;;;;;16.88;14.85;;;;;;;;;;12367506;28;20035;-73
2022/01/10 07:01:21;;;;;;;12.85;10.70;;;;;;;;;;12357927;28;20035;-72
2022/01/10 07:07:25;;;;;;;11.52;10.15;;;;;;;;;;12344464;28;20424;-74
2022/01/10 07:13:33;;;;;;;14.52;13.00;;;;;;;;;;12351670;28;20476;-74
2022/01/10 07:19:38;;;;;;;11.88;10.18;;;;;;;;;;12336151;28;20042;-74
2022/01/10 07:25:42;;;;;;;9.45;8.55;;;;;;;;;;12338737;28;20042;-74
2022/01/10 07:31:44;;;;;;;13.18;10.70;;;;;;;;;;12337531;28;20230;-73
2022/01/10 07:37:45;;;;;;;11.98;10.73;;;;;;;;;;12337586;28;20023;-74
2022/01/10 07:43:47;;;;;;;10.38;9.23;;;;;;;;;;12340299;28;20059;-73
2022/01/10 07:49:51;;;;;;;9.03;8.17;;;;;;;;;;12383374;28;20046;-75
2022/01/10 07:55:53;;;;;;;11.43;10.00;;;;;;;;;;12376541;28;20507;-75
2022/01/10 08:01:55;;;;;;;10.70;9.60;;;;;;;;;;12359349;28;20046;-74
2022/01/10 08:07:57;;;;;;;16.13;14.50;;;;;;;;;;12357899;28;20043;-74
2022/01/10 08:13:58;;;;;;;14.90;13.48;;;;;;;;;;12341769;28;20045;-75
2022/01/10 08:20:00;;;;;;;33.13;16.77;;;;;;;;;;12337300;28;20034;-75
2022/01/10 08:27:02;;;;;;;18.75;16.33;;;;;;;;;;12531170;28;20434;-76
2022/01/10 08:33:04;;;;;;;16.55;14.85;;;;;;;;;;12491140;28;20033;-75
2022/01/10 08:39:06;;;;;;;15.05;13.65;;;;;;;;;;12474310;28;20038;-75
2022/01/10 08:45:08;;;;;;;29.05;25.98;;;;;;;;;;12472103;28;20029;-75
2022/01/10 08:51:10;;;;;;;16.20;14.67;;;;;;;;;;12485563;28;20029;-75
2022/01/10 08:57:12;;;;;;;16.65;14.95;;;;;;;;;;12478350;28;20401;-75
2022/01/10 09:03:14;;;;;;;25.23;20.52;;;;;;;;;;12478133;28;20760;-75
2022/01/10 09:09:16;;;;;;;25.40;22.25;;;;;;;;;;12483741;28;20403;-75
2022/01/10 09:15:17;;;;;;;20.43;17.50;;;;;;;;;;12486609;28;20041;-74
2022/01/10 09:21:19;;;;;;;15.52;13.70;;;;;;;;;;12503202;28;20287;-74
2022/01/10 09:27:21;;;;;;;14.25;12.82;;;;;;;;;;12501066;28;20037;-74
2022/01/10 09:33:23;;;;;;;12.88;11.57;;;;;;;;;;12478380;28;20391;-75
2022/01/10 09:39:24;;;;;;;11.70;10.48;;;;;;;;;;12458965;28;20459;-74
2022/01/10 09:45:26;;;;;;;15.48;10.25;;;;;;;;;;12454244;28;20041;-73
2022/01/10 09:51:28;;;;;;;10.15;9.18;;;;;;;;;;12449549;28;20534;-75
2022/01/10 09:57:30;;;;;;;9.67;8.77;;;;;;;;;;12460107;28;20033;-76
2022/01/10 10:03:32;;;;;;;9.60;8.70;;;;;;;;;;12458688;28;20046;-75
2022/01/10 10:09:34;;;;;;;10.27;9.38;;;;;;;;;;12442174;28;20472;-76
2022/01/10 10:15:36;;;;;;;12.50;9.93;;;;;;;;;;12449203;28;20396;-75
2022/01/10 10:21:38;;;;;;;8.65;7.95;;;;;;;;;;12446737;28;20304;-76
2022/01/10 10:27:41;;;;;;;9.23;8.38;;;;;;;;;;12445968;28;20037;-75
2022/01/10 10:33:52;;;;;;;9.25;8.35;;;;;;;;;;12445094;28;20029;-74
2022/01/10 10:39:56;;;;;;;9.27;7.43;;;;;;;;;;12452175;28;20030;-73
2022/01/10 10:45:59;;;;;;;10.38;7.95;;;;;;;;;;12447296;28;20373;-73
2022/01/10 10:52:03;;;;;;;12.90;9.48;;;;;;;;;;12445153;28;20049;-73
2022/01/10 10:58:05;;;;;;;7.82;7.10;;;;;;;;;;12430735;28;20034;-73
2022/01/10 11:04:11;;;;;;;8.10;7.25;;;;;;;;;;12438306;28;20042;-73
2022/01/10 11:10:13;;;;;;;6.88;6.28;;;;;;;;;;12440646;28;20505;-74
2022/01/10 11:16:14;;;;;;;6.07;5.57;;;;;;;;;;12427058;28;20030;-74
2022/01/10 11:22:16;;;;;;;6.20;5.60;;;;;;;;;;12445300;28;20598;-74
2022/01/10 11:28:20;;;;;;;8.13;7.43;;;;;;;;;;12460700;28;20030;-74
2022/01/10 11:34:23;;;;;;;8.13;7.47;;;;;;;;;;12445225;28;20040;-74
2022/01/10 11:40:26;;;;;;;7.05;6.30;;;;;;;;;;12451587;28;20113;-74
2022/01/10 11:46:47;;;;;;;6.60;5.70;;;;;;;;;;12438466;28;20050;-74
2022/01/10 11:52:55;;;;;;;5.20;4.70;;;;;;;;;;12440867;28;20046;-74
2022/01/10 11:59:14;;;;;;;5.85;5.35;;;;;;;;;;12433464;28;20042;-74
2022/01/10 12:05:16;;;;;;;6.50;5.90;;;;;;;;;;12441981;28;20041;-73
2022/01/10 12:11:18;;;;;;;5.40;4.80;;;;;;;;;;12435598;28;20137;-72
2022/01/10 12:17:20;;;;;;;6.20;5.60;;;;;;;;;;12434866;28;20026;-74
2022/01/10 12:23:22;;;;;;;4.87;4.47;;;;;;;;;;12445330;28;20439;-74
2022/01/10 12:29:28;;;;;;;5.68;5.18;;;;;;;;;;12440211;28;20044;-73
2022/01/10 12:35:29;;;;;;;3.88;3.58;;;;;;;;;;12440765;28;20034;-73
2022/01/10 12:41:32;;;;;;;5.53;4.82;;;;;;;;;;12444788;28;20045;-73
2022/01/10 12:47:34;;;;;;;7.47;6.65;;;;;;;;;;12443201;28;20030;-73
2022/01/10 12:53:36;;;;;;;9.38;7.18;;;;;;;;;;12443734;28;20045;-73
2022/01/10 12:59:38;;;;;;;7.40;6.57;;;;;;;;;;12444650;28;20042;-73
2022/01/10 13:05:39;;;;;;;5.55;5.10;;;;;;;;;;12442811;28;20069;-75
2022/01/10 13:11:44;;;;;;;8.25;7.40;;;;;;;;;;12448599;28;20511;-74
2022/01/10 13:18:12;;;;;;;6.35;5.75;;;;;;;;;;12451987;28;20033;-74
2022/01/10 13:24:21;;;;;;;5.68;5.18;;;;;;;;;;12452803;28;20058;-74
2022/01/10 13:30:26;;;;;;;4.75;4.35;;;;;;;;;;12452367;28;20034;-74
2022/01/10 13:36:41;;;;;;;5.60;4.85;;;;;;;;;;12450880;28;20137;-74
2022/01/10 13:42:47;;;;;;;5.72;5.20;;;;;;;;;;12451517;28;20398;-74
2022/01/10 13:48:54;;;;;;;5.07;4.57;;;;;;;;;;12451401;28;20392;-75
2022/01/10 13:54:55;;;;;;;5.03;4.15;;;;;;;;;;12450807;28;20065;-75
2022/01/10 14:01:01;;;;;;;4.43;4.05;;;;;;;;;;12450870;28;20113;-75
2022/01/10 14:07:07;;;;;;;5.15;4.75;;;;;;;;;;12449279;28;20135;-74
2022/01/10 14:13:10;;;;;;;5.55;5.05;;;;;;;;;;12450709;28;20050;-73
2022/01/10 14:19:12;;;;;;;5.78;5.28;;;;;;;;;;12448726;28;20419;-73
2022/01/10 14:25:16;;;;;;;6.05;5.45;;;;;;;;;;12448588;28;20065;-73
2022/01/10 14:31:18;;;;;;;4.40;4.00;;;;;;;;;;12448360;28;20044;-73
2022/01/10 14:37:20;;;;;;;5.30;4.90;;;;;;;;;;12429765;28;20048;-73
2022/01/10 14:43:22;;;;;;;6.38;5.45;;;;;;;;;;12444067;28;20037;-74
2022/01/10 14:49:24;;;;;;;7.63;6.93;;;;;;;;;;12448183;28;20045;-74
2022/01/10 14:55:25;;;;;;;8.20;6.80;;;;;;;;;;12449771;28;20049;-74
2022/01/10 15:01:29;;;;;;;7.65;7.03;;;;;;;;;;12448124;28;20038;-74
2022/01/10 15:07:30;;;;;;;8.48;7.68;;;;;;;;;;12447817;28;20050;-75
2022/01/10 15:13:32;;;;;;;8.35;7.60;;;;;;;;;;12447976;28;20502;-74
2022/01/10 15:19:34;;;;;;;7.90;7.10;;;;;;;;;;12446298;28;20034;-74
2022/01/10 15:25:35;;;;;;;8.00;7.22;;;;;;;;;;12446819;28;20076;-73
2022/01/10 15:31:38;;;;;;;9.23;7.32;;;;;;;;;;12445009;28;20046;-73
2022/01/10 15:37:40;;;;;;;6.82;6.22;;;;;;;;;;12446745;28;20491;-73
2022/01/10 15:43:41;;;;;;;6.35;5.80;;;;;;;;;;12445275;28;20046;-73
2022/01/10 15:49:43;;;;;;;7.20;5.97;;;;;;;;;;12446039;28;20026;-73
2022/01/10 15:55:45;;;;;;;5.22;4.80;;;;;;;;;;12446877;28;20049;-73
2022/01/10 16:01:47;;;;;;;5.55;5.00;;;;;;;;;;12444598;28;20025;-73
2022/01/10 16:07:49;;;;;;;5.68;5.18;;;;;;;;;;12444012;28;20034;-74
2022/01/10 16:13:53;;;;;;;7.05;6.43;;;;;;;;;;12445550;28;20380;-74
2022/01/10 16:19:55;;;;;;;6.63;6.03;;;;;;;;;;12445294;28;20487;-74
2022/01/10 16:25:57;;;;;;;7.00;6.32;;;;;;;;;;12444034;28;20061;-73
2022/01/10 16:31:59;;;;;;;5.60;5.10;;;;;;;;;;12445165;28;20030;-74
2022/01/10 16:38:00;;;;;;;5.90;5.30;;;;;;;;;;12443540;28;20041;-74
2022/01/10 16:44:02;;;;;;;6.38;5.43;;;;;;;;;;12445310;28;20037;-73
2022/01/10 16:50:05;;;;;;;10.57;9.57;;;;;;;;;;12454507;28;20034;-73
2022/01/10 16:56:07;;;;;;;12.37;10.03;;;;;;;;;;12453885;28;20387;-73
2022/01/10 17:02:11;;;;;;;8.23;7.43;;;;;;;;;;12452563;28;20507;-73
2022/01/10 17:08:17;;;;;;;9.02;8.13;;;;;;;;;;12452838;28;20537;-74
2022/01/10 17:14:21;;;;;;;10.43;9.25;;;;;;;;;;12451913;28;20395;-73
2022/01/10 17:20:23;;;;;;;9.75;8.52;;;;;;;;;;12453059;28;20030;-73
2022/01/10 17:26:27;;;;;;;10.55;9.20;;;;;;;;;;12452629;28;20058;-73
2022/01/10 17:32:29;;;;;;;13.27;11.57;;;;;;;;;;12451246;28;20045;-73
2022/01/10 17:38:31;;;;;;;12.55;11.15;;;;;;;;;;12453123;28;20033;-73
2022/01/10 17:44:34;;;;;;;11.55;10.40;;;;;;;;;;12452021;28;20042;-74
2022/01/10 17:50:37;;;;;;;13.00;11.38;;;;;;;;;;12450311;28;20037;-73
2022/01/10 17:56:39;;;;;;;15.25;13.57;;;;;;;;;;12452522;28;20049;-74
2022/01/10 18:02:41;;;;;;;21.58;18.50;;;;;;;;;;12433354;28;20045;-74
2022/01/10 18:08:43;;;;;;;38.13;34.10;;;;;;;;;;12450854;28;20034;-73
2022/01/10 18:14:45;;;;;;;25.80;23.10;;;;;;;;;;12450658;28;20034;-74
2022/01/10 18:20:46;;;;;;;20.33;18.13;;;;;;;;;;12450291;28;20041;-74
2022/01/10 18:26:50;;;;;;;18.25;16.33;;;;;;;;;;12448698;28;20085;-74
2022/01/10 18:32:52;;;;;;;22.35;19.58;;;;;;;;;;12448607;28;20471;-74
2022/01/10 18:38:54;;;;;;;26.25;23.52;;;;;;;;;;12432003;28;20038;-74
2022/01/10 18:44:56;;;;;;;28.38;25.52;;;;;;;;;;12448866;28;20049;-74
2022/01/10 18:50:58;;;;;;;25.90;23.40;;;;;;;;;;12447476;28;20033;-73
2022/01/10 18:57:00;;;;;;;27.00;24.40;;;;;;;;;;12448410;28;20554;-73
2022/01/10 19:03:02;;;;;;;22.67;20.52;;;;;;;;;;12446853;28;20519;-74
2022/01/10 19:09:04;;;;;;;29.13;26.23;;;;;;;;;;12447101;28;20041;-73
2022/01/10 19:15:07;;;;;;;28.13;25.15;;;;;;;;;;12447966;28;20033;-73
2022/01/10 19:21:09;;;;;;;25.85;23.15;;;;;;;;;;12445925;28;20045;-75
2022/01/10 19:27:10;;;;;;;24.65;22.23;;;;;;;;;;12446125;28;20049;-73
2022/01/10 19:33:12;;;;;;;20.70;18.63;;;;;;;;;;12445765;28;20448;-74
2022/01/10 19:39:14;;;;;;;24.20;21.75;;;;;;;;;;12447561;28;20049;-74
2022/01/10 19:45:16;;;;;;;26.05;23.30;;;;;;;;;;12445432;28;20042;-75
2022/01/10 19:51:18;;;;;;;24.08;21.70;;;;;;;;;;12444837;28;20041;-75
2022/01/10 19:57:20;;;;;;;27.93;25.13;;;;;;;;;;12445115;28;20034;-75
2022/01/10 20:03:23;;;;;;;21.30;19.02;;;;;;;;;;12445397;28;20407;-75
2022/01/10 20:09:24;;;;;;;27.95;25.05;;;;;;;;;;12444776;28;20041;-74
2022/01/10 20:15:26;;;;;;;26.02;23.50;;;;;;;;;;12444642;28;20506;-74
2022/01/10 20:21:28;;;;;;;28.80;26.00;;;;;;;;;;12443938;28;20519;-74
2022/01/10 20:27:30;;;;;;;26.60;23.88;;;;;;;;;;12445336;28;20193;-74
2022/01/10 20:33:32;;;;;;;34.58;30.48;;;;;;;;;;12444186;28;20033;-75
2022/01/10 20:39:33;;;;;;;29.77;26.70;;;;;;;;;;12444848;28;20042;-75
2022/01/10 20:45:36;;;;;;;30.40;27.50;;;;;;;;;;12444621;28;20041;-74
2022/01/10 20:51:38;;;;;;;29.67;24.92;;;;;;;;;;12444981;28;20141;-75
2022/01/10 20:57:39;;;;;;;22.92;19.25;;;;;;;;;;12443449;28;20040;-74
2022/01/10 21:03:44;;;;;;;27.40;23.42;;;;;;;;;;12444480;28;20483;-75
2022/01/10 21:09:46;;;;;;;23.65;20.98;;;;;;;;;;12443463;28;20033;-74
2022/01/10 21:15:47;;;;;;;23.38;19.35;;;;;;;;;;12442847;28;20034;-74
2022/01/10 21:21:49;;;;;;;23.48;19.90;;;;;;;;;;12443270;28;20522;-74
2022/01/10 21:27:52;;;;;;;25.60;22.67;;;;;;;;;;12443678;28;20038;-74
2022/01/10 21:33:54;;;;;;;;;;;;;;;;;;12450759;28;20038;-74
2022/01/10 21:39:55;;;;;;;28.90;23.83;;;;;;;;;;12451357;28;20243;-73
2022/01/10 21:45:57;;;;;;;23.85;20.17;;;;;;;;;;12452307;28;20048;-73
2022/01/10 21:51:59;;;;;;;25.85;22.02;;;;;;;;;;12451063;28;20494;-74
2022/01/10 21:58:02;;;;;;;32.63;29.10;;;;;;;;;;12451924;28;20049;-74
2022/01/10 22:04:03;;;;;;;;;;;;;;;;;;12451953;28;20050;-74
2022/01/10 22:10:05;;;;;;;22.95;20.40;;;;;;;;;;12451122;28;20291;-75
2022/01/10 22:16:08;;;;;;;22.30;19.57;;;;;;;;;;12450851;28;20034;-74
2022/01/10 22:22:12;;;;;;;25.73;21.80;;;;;;;;;;12432950;28;20069;-75
2022/01/10 22:28:14;;;;;;;22.48;18.70;;;;;;;;;;12449153;28;20083;-74
2022/01/10 22:34:16;;;;;;;20.88;18.40;;;;;;;;;;12449928;28;20052;-75
2022/01/10 22:40:18;;;;;;;28.52;23.10;;;;;;;;;;12449863;28;20034;-75
2022/01/10 22:46:19;;;;;;;33.63;29.77;;;;;;;;;;12448253;28;20418;-74
2022/01/10 22:52:22;;;;;;;30.27;24.75;;;;;;;;;;12447837;28;20050;-74
2022/01/10 22:58:24;;;;;;;29.70;23.25;;;;;;;;;;12447623;28;20053;-74
2022/01/10 23:04:25;;;;;;;17.83;15.73;;;;;;;;;;12447249;28;20377;-74
2022/01/10 23:10:27;;;;;;;25.77;20.80;;;;;;;;;;12447047;28;20423;-75
2022/01/10 23:16:29;;;;;;;29.20;25.00;;;;;;;;;;12448380;28;20042;-73
2022/01/10 23:22:31;;;;;;;20.92;17.23;;;;;;;;;;12445903;28;20053;-74
2022/01/10 23:28:33;;;;;;;28.13;21.47;;;;;;;;;;12446775;28;20395;-75
2022/01/10 23:34:35;;;;;;;22.10;17.97;;;;;;;;;;12446274;28;20034;-74
2022/01/10 23:40:38;;;;;;;20.53;18.00;;;;;;;;;;12447403;28;20029;-74
2022/01/10 23:46:40;;;;;;;17.25;15.25;;;;;;;;;;12445548;28;20118;-74
2022/01/10 23:58:50;;;;;;;25.08;20.90;;;;;;;;;;12446280;28;20046;-74
